Aérodrome :
LOGIN :

S'inscrire | Disclaimer

   EN    FR    IT 

 










Légende :    VFR   VFR Marginal   IFR   IFR Intensif   IFR Très Intensif
Visi : 
Plafond : 
>= 8 km
>= 3000ft
5 à 8 km
1000 à 3000 ft
1500m à 5 km
500 à 1000 ft
800 à 1500m
200 à 500 ft
< 800m
< 200 ft
Symboles :   Orages  Brouillard  Fortes neiges  Fortes précipitations  Vent > 20 kt
SIGMETs :   Divers  Orages  Givrage  Turbulence  Onde Orograph.  Cendres Volcan.







- Altitude de l'aérodrome : 36 ft
- Code IATA : LTQ
- Voir les cartes d'approche


LFAT - Le Touquet

DERNIER METAR :
  • 201630Z AUTO 02012KT CAVOK 21/09 Q1026 NOSIG

METARs EXPIRÉS :
  • 201600Z AUTO 03011KT CAVOK 22/08 Q1026 NOSIG
  • 201530Z AUTO 03010KT 350V060 CAVOK 23/10 Q1026 NOSIG
  • 201500Z AUTO 03008KT 360V070 CAVOK 24/09 Q1026 NOSIG
  • 201430Z AUTO 02008KT CAVOK 24/09 Q1027 NOSIG
  • 201400Z AUTO 08010KT 030V100 CAVOK 24/08 Q1027 NOSIG

TAF TAF LFAT
Valide du 20 à 15h jusqu'au 21 à 00h UTC


201400Z 2015/2024 06009KT CAVOK
ATIS : +33 3 21 06 62 84
Pas de NOTAMs connus pour ce terrain.
2 SIGMETs publiés pour la FIR Paris (LFFF) :
 
Annulation du SIGMET 2 
LFFF SIGMET 3 VALID 201545/201700 LFPW
LFFF PARIS FIR/UIR CNL SIGMET 2 201500/201700=
SIGMET 2  ANNULÉ :
Orages fréquents
LFFF SIGMET 2 VALID 201500/201700 LFPW
LFFF PARIS FIR/UIR FRQ TS OBS WI N4630 E00330 - N4630 E00300 - N4715 E00200 - N4715 E00245 - N4630 E00330 TOP FL350 MOV SW 20KT NC=



MET'MAP, la Météo Aéronautique d'un coup d'oeil ! - Copyright ORBIFLY Décembre 2007 - Disclaimer

ORBIFLY MET'MAP TEAM :

Programmation & Développement : Alexandra Zaïnal
Conception & Développement : Baudouin d'Aumeries
Co-Programmation & Développement : Marc-Olivier Méhu
Soutien technique & logistique : Manuel Goepfert

Contact : metmap@orbifly.com




SOURCES & CREDITS :

   NOAA